sensor_id;sensor_type;location;lat;lon;timestamp;P1;durP1;ratioP1;P2;durP2;ratioP2
62554;SDS011;48610;52.144;8.624;2023-09-19T00:00:51;7.13;;;3.05;;
62554;SDS011;48610;52.144;8.624;2023-09-19T00:03:56;12.85;;;3.35;;
62554;SDS011;48610;52.144;8.624;2023-09-19T00:06:58;10.30;;;3.35;;
62554;SDS011;48610;52.144;8.624;2023-09-19T00:09:59;8.32;;;3.22;;
62554;SDS011;48610;52.144;8.624;2023-09-19T00:13:00;11.38;;;3.30;;
62554;SDS011;48610;52.144;8.624;2023-09-19T00:16:08;7.43;;;3.42;;
62554;SDS011;48610;52.144;8.624;2023-09-19T00:22:11;5.47;;;3.42;;
62554;SDS011;48610;52.144;8.624;2023-09-19T00:25:13;5.45;;;3.30;;
62554;SDS011;48610;52.144;8.624;2023-09-19T00:28:15;6.60;;;3.35;;
62554;SDS011;48610;52.144;8.624;2023-09-19T00:31:17;7.50;;;3.60;;
62554;SDS011;48610;52.144;8.624;2023-09-19T00:34:18;10.20;;;4.03;;
62554;SDS011;48610;52.144;8.624;2023-09-19T00:37:18;6.00;;;3.70;;
62554;SDS011;48610;52.144;8.624;2023-09-19T00:40:19;8.95;;;4.15;;
62554;SDS011;48610;52.144;8.624;2023-09-19T00:43:21;7.28;;;3.90;;
62554;SDS011;48610;52.144;8.624;2023-09-19T00:46:24;16.50;;;4.57;;
62554;SDS011;48610;52.144;8.624;2023-09-19T00:49:25;8.40;;;3.47;;
62554;SDS011;48610;52.144;8.624;2023-09-19T00:52:27;9.85;;;3.88;;
62554;SDS011;48610;52.144;8.624;2023-09-19T00:55:28;9.07;;;3.67;;
62554;SDS011;48610;52.144;8.624;2023-09-19T00:58:30;9.57;;;3.95;;
62554;SDS011;48610;52.144;8.624;2023-09-19T01:01:33;8.40;;;3.80;;
62554;SDS011;48610;52.144;8.624;2023-09-19T01:04:35;9.65;;;3.92;;
62554;SDS011;48610;52.144;8.624;2023-09-19T01:07:36;10.55;;;4.25;;
62554;SDS011;48610;52.144;8.624;2023-09-19T01:10:44;9.40;;;3.88;;
62554;SDS011;48610;52.144;8.624;2023-09-19T01:17:42;15.93;;;4.57;;
62554;SDS011;48610;52.144;8.624;2023-09-19T01:30:33;10.35;;;3.22;;
62554;SDS011;48610;52.144;8.624;2023-09-19T01:37:04;7.03;;;3.63;;
62554;SDS011;48610;52.144;8.624;2023-09-19T01:40:06;10.98;;;3.50;;
62554;SDS011;48610;52.144;8.624;2023-09-19T01:46:33;10.90;;;3.75;;
62554;SDS011;48610;52.144;8.624;2023-09-19T01:49:48;10.65;;;3.15;;
62554;SDS011;48610;52.144;8.624;2023-09-19T01:53:00;12.52;;;3.60;;
62554;SDS011;48610;52.144;8.624;2023-09-19T01:56:05;6.22;;;3.30;;
62554;SDS011;48610;52.144;8.624;2023-09-19T01:59:13;7.80;;;3.67;;
62554;SDS011;48610;52.144;8.624;2023-09-19T02:02:20;13.88;;;3.53;;
62554;SDS011;48610;52.144;8.624;2023-09-19T02:05:23;8.85;;;3.20;;
62554;SDS011;48610;52.144;8.624;2023-09-19T02:08:24;8.90;;;3.22;;
62554;SDS011;48610;52.144;8.624;2023-09-19T02:11:26;15.10;;;3.92;;
62554;SDS011;48610;52.144;8.624;2023-09-19T02:14:26;10.45;;;3.67;;
62554;SDS011;48610;52.144;8.624;2023-09-19T02:17:27;13.07;;;3.38;;
62554;SDS011;48610;52.144;8.624;2023-09-19T02:20:28;13.85;;;3.97;;
62554;SDS011;48610;52.144;8.624;2023-09-19T02:23:28;9.43;;;3.40;;
62554;SDS011;48610;52.144;8.624;2023-09-19T02:26:30;7.18;;;2.95;;
62554;SDS011;48610;52.144;8.624;2023-09-19T02:29:30;9.60;;;3.22;;
62554;SDS011;48610;52.144;8.624;2023-09-19T02:32:31;8.65;;;3.00;;
62554;SDS011;48610;52.144;8.624;2023-09-19T02:35:35;15.27;;;3.75;;
62554;SDS011;48610;52.144;8.624;2023-09-19T02:38:36;11.93;;;3.30;;
62554;SDS011;48610;52.144;8.624;2023-09-19T02:41:37;8.60;;;2.78;;
62554;SDS011;48610;52.144;8.624;2023-09-19T02:44:38;7.25;;;2.63;;
62554;SDS011;48610;52.144;8.624;2023-09-19T02:47:40;10.02;;;3.30;;
62554;SDS011;48610;52.144;8.624;2023-09-19T02:50:40;12.10;;;3.63;;
62554;SDS011;48610;52.144;8.624;2023-09-19T02:53:42;13.48;;;4.00;;
62554;SDS011;48610;52.144;8.624;2023-09-19T02:56:42;8.65;;;3.22;;
62554;SDS011;48610;52.144;8.624;2023-09-19T02:59:43;13.23;;;3.63;;
62554;SDS011;48610;52.144;8.624;2023-09-19T03:02:44;7.68;;;3.03;;
62554;SDS011;48610;52.144;8.624;2023-09-19T03:05:46;8.30;;;3.10;;
62554;SDS011;48610;52.144;8.624;2023-09-19T03:08:47;11.70;;;3.60;;
62554;SDS011;48610;52.144;8.624;2023-09-19T03:11:49;8.15;;;3.65;;
62554;SDS011;48610;52.144;8.624;2023-09-19T03:14:50;11.40;;;3.00;;
62554;SDS011;48610;52.144;8.624;2023-09-19T03:17:51;9.73;;;3.20;;
62554;SDS011;48610;52.144;8.624;2023-09-19T03:20:54;8.52;;;2.72;;
62554;SDS011;48610;52.144;8.624;2023-09-19T03:23:55;12.32;;;4.00;;
62554;SDS011;48610;52.144;8.624;2023-09-19T03:26:55;13.93;;;3.58;;
62554;SDS011;48610;52.144;8.624;2023-09-19T03:29:56;17.02;;;3.58;;
62554;SDS011;48610;52.144;8.624;2023-09-19T03:32:58;10.07;;;3.72;;
62554;SDS011;48610;52.144;8.624;2023-09-19T03:35:58;10.05;;;3.45;;
62554;SDS011;48610;52.144;8.624;2023-09-19T03:39:01;12.32;;;3.53;;
62554;SDS011;48610;52.144;8.624;2023-09-19T03:42:05;8.85;;;3.72;;
62554;SDS011;48610;52.144;8.624;2023-09-19T03:45:07;11.50;;;3.50;;
62554;SDS011;48610;52.144;8.624;2023-09-19T03:48:12;11.57;;;3.28;;
62554;SDS011;48610;52.144;8.624;2023-09-19T03:51:13;13.73;;;3.63;;
62554;SDS011;48610;52.144;8.624;2023-09-19T03:54:13;10.27;;;4.30;;
62554;SDS011;48610;52.144;8.624;2023-09-19T03:57:14;6.78;;;2.83;;
62554;SDS011;48610;52.144;8.624;2023-09-19T04:00:17;11.73;;;3.67;;
62554;SDS011;48610;52.144;8.624;2023-09-19T04:03:21;10.98;;;3.50;;
62554;SDS011;48610;52.144;8.624;2023-09-19T04:06:21;11.10;;;3.47;;
62554;SDS011;48610;52.144;8.624;2023-09-19T04:09:22;7.07;;;3.03;;
62554;SDS011;48610;52.144;8.624;2023-09-19T04:12:22;7.43;;;3.05;;
62554;SDS011;48610;52.144;8.624;2023-09-19T04:15:23;18.33;;;3.33;;
62554;SDS011;48610;52.144;8.624;2023-09-19T04:18:24;10.90;;;3.13;;
62554;SDS011;48610;52.144;8.624;2023-09-19T04:21:25;9.98;;;3.38;;
62554;SDS011;48610;52.144;8.624;2023-09-19T04:24:26;19.60;;;3.63;;
62554;SDS011;48610;52.144;8.624;2023-09-19T04:27:27;8.45;;;3.40;;
62554;SDS011;48610;52.144;8.624;2023-09-19T04:30:27;9.43;;;3.50;;
62554;SDS011;48610;52.144;8.624;2023-09-19T04:33:28;15.95;;;3.83;;
62554;SDS011;48610;52.144;8.624;2023-09-19T04:36:29;11.50;;;3.17;;
62554;SDS011;48610;52.144;8.624;2023-09-19T04:39:29;8.32;;;3.30;;
62554;SDS011;48610;52.144;8.624;2023-09-19T04:42:30;11.00;;;3.00;;
62554;SDS011;48610;52.144;8.624;2023-09-19T04:45:31;10.35;;;3.35;;
62554;SDS011;48610;52.144;8.624;2023-09-19T04:48:32;13.02;;;3.70;;
62554;SDS011;48610;52.144;8.624;2023-09-19T04:51:34;15.60;;;3.17;;
62554;SDS011;48610;52.144;8.624;2023-09-19T04:54:36;7.50;;;3.03;;
62554;SDS011;48610;52.144;8.624;2023-09-19T04:57:36;8.23;;;3.83;;
62554;SDS011;48610;52.144;8.624;2023-09-19T05:00:37;15.43;;;3.08;;
62554;SDS011;48610;52.144;8.624;2023-09-19T05:03:38;8.27;;;2.90;;
62554;SDS011;48610;52.144;8.624;2023-09-19T05:06:38;9.25;;;2.92;;
62554;SDS011;48610;52.144;8.624;2023-09-19T05:09:39;9.75;;;3.05;;
62554;SDS011;48610;52.144;8.624;2023-09-19T05:12:42;8.20;;;2.97;;
62554;SDS011;48610;52.144;8.624;2023-09-19T05:15:45;8.18;;;2.95;;
62554;SDS011;48610;52.144;8.624;2023-09-19T05:18:45;12.07;;;3.65;;
62554;SDS011;48610;52.144;8.624;2023-09-19T05:21:46;7.97;;;2.45;;
62554;SDS011;48610;52.144;8.624;2023-09-19T05:24:47;14.77;;;3.60;;
62554;SDS011;48610;52.144;8.624;2023-09-19T05:27:48;10.43;;;3.33;;
62554;SDS011;48610;52.144;8.624;2023-09-19T05:30:48;16.85;;;3.65;;
62554;SDS011;48610;52.144;8.624;2023-09-19T05:33:49;17.73;;;3.25;;
62554;SDS011;48610;52.144;8.624;2023-09-19T05:36:50;11.82;;;3.38;;
62554;SDS011;48610;52.144;8.624;2023-09-19T05:39:52;15.63;;;3.28;;
62554;SDS011;48610;52.144;8.624;2023-09-19T05:42:55;10.77;;;3.08;;
62554;SDS011;48610;52.144;8.624;2023-09-19T05:45:56;12.75;;;3.30;;
62554;SDS011;48610;52.144;8.624;2023-09-19T05:48:56;9.77;;;2.95;;
62554;SDS011;48610;52.144;8.624;2023-09-19T05:51:57;16.23;;;3.33;;
62554;SDS011;48610;52.144;8.624;2023-09-19T05:54:59;13.02;;;2.88;;
62554;SDS011;48610;52.144;8.624;2023-09-19T05:57:59;18.65;;;4.05;;
62554;SDS011;48610;52.144;8.624;2023-09-19T06:01:00;18.23;;;3.58;;
62554;SDS011;48610;52.144;8.624;2023-09-19T06:04:01;16.27;;;3.65;;
62554;SDS011;48610;52.144;8.624;2023-09-19T06:07:02;10.43;;;2.55;;
62554;SDS011;48610;52.144;8.624;2023-09-19T06:10:03;11.73;;;3.80;;
62554;SDS011;48610;52.144;8.624;2023-09-19T06:13:08;14.20;;;2.92;;
62554;SDS011;48610;52.144;8.624;2023-09-19T06:16:10;7.22;;;2.60;;
62554;SDS011;48610;52.144;8.624;2023-09-19T06:19:11;10.38;;;2.75;;
62554;SDS011;48610;52.144;8.624;2023-09-19T06:22:12;12.63;;;3.50;;
62554;SDS011;48610;52.144;8.624;2023-09-19T06:25:18;10.00;;;3.08;;
62554;SDS011;48610;52.144;8.624;2023-09-19T06:28:19;9.40;;;2.85;;
62554;SDS011;48610;52.144;8.624;2023-09-19T06:31:24;9.45;;;2.60;;
62554;SDS011;48610;52.144;8.624;2023-09-19T06:34:26;12.20;;;3.28;;
62554;SDS011;48610;52.144;8.624;2023-09-19T06:37:30;15.13;;;3.22;;
62554;SDS011;48610;52.144;8.624;2023-09-19T06:40:30;10.40;;;2.80;;
62554;SDS011;48610;52.144;8.624;2023-09-19T06:43:31;12.85;;;2.92;;
62554;SDS011;48610;52.144;8.624;2023-09-19T06:46:33;9.52;;;2.45;;
62554;SDS011;48610;52.144;8.624;2023-09-19T06:49:35;8.18;;;2.88;;
62554;SDS011;48610;52.144;8.624;2023-09-19T06:52:36;13.73;;;3.15;;
62554;SDS011;48610;52.144;8.624;2023-09-19T06:55:36;12.85;;;2.97;;
62554;SDS011;48610;52.144;8.624;2023-09-19T06:58:37;14.30;;;2.80;;
62554;SDS011;48610;52.144;8.624;2023-09-19T07:01:38;18.45;;;3.75;;
62554;SDS011;48610;52.144;8.624;2023-09-19T07:04:39;7.30;;;2.58;;
62554;SDS011;48610;52.144;8.624;2023-09-19T07:07:40;8.82;;;2.53;;
62554;SDS011;48610;52.144;8.624;2023-09-19T07:10:41;11.43;;;2.60;;
62554;SDS011;48610;52.144;8.624;2023-09-19T07:13:48;9.23;;;2.55;;
62554;SDS011;48610;52.144;8.624;2023-09-19T07:16:48;8.77;;;3.25;;
62554;SDS011;48610;52.144;8.624;2023-09-19T07:19:49;12.43;;;2.78;;
62554;SDS011;48610;52.144;8.624;2023-09-19T07:22:50;8.82;;;3.03;;
62554;SDS011;48610;52.144;8.624;2023-09-19T07:25:51;10.75;;;2.65;;
62554;SDS011;48610;52.144;8.624;2023-09-19T07:28:52;7.93;;;2.85;;
62554;SDS011;48610;52.144;8.624;2023-09-19T07:31:53;16.95;;;3.13;;
62554;SDS011;48610;52.144;8.624;2023-09-19T07:34:54;7.03;;;2.50;;
62554;SDS011;48610;52.144;8.624;2023-09-19T07:37:55;5.47;;;2.45;;
62554;SDS011;48610;52.144;8.624;2023-09-19T07:41:00;10.23;;;2.70;;
62554;SDS011;48610;52.144;8.624;2023-09-19T07:44:02;15.75;;;2.50;;
62554;SDS011;48610;52.144;8.624;2023-09-19T07:47:03;16.17;;;2.83;;
62554;SDS011;48610;52.144;8.624;2023-09-19T07:50:03;8.90;;;2.55;;
62554;SDS011;48610;52.144;8.624;2023-09-19T07:53:04;8.32;;;2.45;;
62554;SDS011;48610;52.144;8.624;2023-09-19T07:56:05;8.00;;;2.55;;
62554;SDS011;48610;52.144;8.624;2023-09-19T07:59:07;14.32;;;2.78;;
62554;SDS011;48610;52.144;8.624;2023-09-19T08:02:10;11.52;;;2.90;;
62554;SDS011;48610;52.144;8.624;2023-09-19T08:05:15;10.57;;;2.72;;
62554;SDS011;48610;52.144;8.624;2023-09-19T08:08:17;9.52;;;2.67;;
62554;SDS011;48610;52.144;8.624;2023-09-19T08:11:17;12.38;;;2.70;;
62554;SDS011;48610;52.144;8.624;2023-09-19T08:14:21;11.05;;;2.47;;
62554;SDS011;48610;52.144;8.624;2023-09-19T08:17:24;10.55;;;2.70;;
62554;SDS011;48610;52.144;8.624;2023-09-19T08:20:25;10.63;;;2.75;;
62554;SDS011;48610;52.144;8.624;2023-09-19T08:23:26;9.90;;;2.92;;
62554;SDS011;48610;52.144;8.624;2023-09-19T08:26:30;7.18;;;2.38;;
62554;SDS011;48610;52.144;8.624;2023-09-19T08:29:33;11.40;;;3.24;;
62554;SDS011;48610;52.144;8.624;2023-09-19T08:32:35;8.27;;;2.95;;
62554;SDS011;48610;52.144;8.624;2023-09-19T08:35:35;11.50;;;2.83;;
62554;SDS011;48610;52.144;8.624;2023-09-19T08:38:37;12.93;;;2.92;;
62554;SDS011;48610;52.144;8.624;2023-09-19T08:41:38;8.07;;;3.10;;
62554;SDS011;48610;52.144;8.624;2023-09-19T08:44:39;13.07;;;3.15;;
62554;SDS011;48610;52.144;8.624;2023-09-19T08:47:44;7.97;;;2.53;;
62554;SDS011;48610;52.144;8.624;2023-09-19T08:50:55;6.32;;;2.80;;
62554;SDS011;48610;52.144;8.624;2023-09-19T08:54:06;15.20;;;2.88;;
62554;SDS011;48610;52.144;8.624;2023-09-19T08:57:07;8.43;;;2.20;;
62554;SDS011;48610;52.144;8.624;2023-09-19T09:00:11;5.90;;;2.28;;
62554;SDS011;48610;52.144;8.624;2023-09-19T09:03:14;8.55;;;2.63;;
62554;SDS011;48610;52.144;8.624;2023-09-19T09:06:20;14.15;;;3.20;;
62554;SDS011;48610;52.144;8.624;2023-09-19T09:09:21;9.18;;;2.90;;
62554;SDS011;48610;52.144;8.624;2023-09-19T09:12:22;11.27;;;3.10;;
62554;SDS011;48610;52.144;8.624;2023-09-19T09:15:23;9.38;;;3.00;;
62554;SDS011;48610;52.144;8.624;2023-09-19T09:18:23;7.68;;;3.10;;
62554;SDS011;48610;52.144;8.624;2023-09-19T09:21:25;9.48;;;3.63;;
62554;SDS011;48610;52.144;8.624;2023-09-19T09:24:29;12.95;;;3.10;;
62554;SDS011;48610;52.144;8.624;2023-09-19T09:27:30;14.87;;;3.00;;
62554;SDS011;48610;52.144;8.624;2023-09-19T09:30:34;13.70;;;4.00;;
62554;SDS011;48610;52.144;8.624;2023-09-19T09:33:37;9.18;;;2.90;;
62554;SDS011;48610;52.144;8.624;2023-09-19T09:36:39;8.70;;;3.45;;
62554;SDS011;48610;52.144;8.624;2023-09-19T09:39:50;7.82;;;3.20;;
62554;SDS011;48610;52.144;8.624;2023-09-19T09:42:56;11.63;;;3.20;;
62554;SDS011;48610;52.144;8.624;2023-09-19T09:49:23;9.32;;;3.70;;
62554;SDS011;48610;52.144;8.624;2023-09-19T09:52:44;6.88;;;2.85;;
62554;SDS011;48610;52.144;8.624;2023-09-19T09:56:04;11.40;;;2.92;;
62554;SDS011;48610;52.144;8.624;2023-09-19T09:59:09;7.82;;;3.45;;
62554;SDS011;48610;52.144;8.624;2023-09-19T10:02:18;9.00;;;3.30;;
62554;SDS011;48610;52.144;8.624;2023-09-19T10:05:24;6.72;;;2.38;;
62554;SDS011;48610;52.144;8.624;2023-09-19T10:08:27;9.02;;;3.22;;
62554;SDS011;48610;52.144;8.624;2023-09-19T10:11:31;9.15;;;3.35;;
62554;SDS011;48610;52.144;8.624;2023-09-19T10:14:33;16.00;;;3.40;;
62554;SDS011;48610;52.144;8.624;2023-09-19T10:17:38;10.38;;;3.45;;
62554;SDS011;48610;52.144;8.624;2023-09-19T10:20:47;7.60;;;2.95;;
62554;SDS011;48610;52.144;8.624;2023-09-19T10:23:50;7.72;;;3.25;;
62554;SDS011;48610;52.144;8.624;2023-09-19T10:26:56;8.80;;;3.28;;
62554;SDS011;48610;52.144;8.624;2023-09-19T10:29:57;7.07;;;2.47;;
62554;SDS011;48610;52.144;8.624;2023-09-19T10:33:03;7.28;;;3.20;;
62554;SDS011;48610;52.144;8.624;2023-09-19T10:36:05;12.90;;;3.10;;
62554;SDS011;48610;52.144;8.624;2023-09-19T10:39:06;9.50;;;3.25;;
62554;SDS011;48610;52.144;8.624;2023-09-19T10:42:08;7.78;;;2.97;;
62554;SDS011;48610;52.144;8.624;2023-09-19T10:45:15;11.68;;;3.45;;
62554;SDS011;48610;52.144;8.624;2023-09-19T10:48:20;10.07;;;3.20;;
62554;SDS011;48610;52.144;8.624;2023-09-19T10:51:25;11.00;;;3.20;;
62554;SDS011;48610;52.144;8.624;2023-09-19T10:54:32;13.25;;;3.88;;
62554;SDS011;48610;52.144;8.624;2023-09-19T11:00:50;10.27;;;3.67;;
62554;SDS011;48610;52.144;8.624;2023-09-19T11:04:20;6.65;;;2.92;;
62554;SDS011;48610;52.144;8.624;2023-09-19T11:07:23;6.50;;;2.63;;
62554;SDS011;48610;52.144;8.624;2023-09-19T11:13:47;8.73;;;2.60;;
62554;SDS011;48610;52.144;8.624;2023-09-19T11:20:21;10.23;;;2.83;;
62554;SDS011;48610;52.144;8.624;2023-09-19T11:23:23;6.25;;;3.00;;
62554;SDS011;48610;52.144;8.624;2023-09-19T11:26:39;8.82;;;2.70;;
62554;SDS011;48610;52.144;8.624;2023-09-19T11:29:47;7.68;;;2.83;;
62554;SDS011;48610;52.144;8.624;2023-09-19T11:36:29;8.38;;;2.80;;
62554;SDS011;48610;52.144;8.624;2023-09-19T11:39:36;7.55;;;2.88;;
62554;SDS011;48610;52.144;8.624;2023-09-19T11:48:46;14.13;;;3.60;;
62554;SDS011;48610;52.144;8.624;2023-09-19T11:51:52;8.20;;;2.75;;
62554;SDS011;48610;52.144;8.624;2023-09-19T11:54:54;8.98;;;3.05;;
62554;SDS011;48610;52.144;8.624;2023-09-19T11:57:57;5.75;;;2.33;;
62554;SDS011;48610;52.144;8.624;2023-09-19T12:00:59;11.50;;;3.45;;
62554;SDS011;48610;52.144;8.624;2023-09-19T12:04:02;11.75;;;3.03;;
62554;SDS011;48610;52.144;8.624;2023-09-19T12:07:07;7.72;;;2.22;;
62554;SDS011;48610;52.144;8.624;2023-09-19T12:10:15;11.75;;;2.90;;
62554;SDS011;48610;52.144;8.624;2023-09-19T12:13:20;7.35;;;2.83;;
62554;SDS011;48610;52.144;8.624;2023-09-19T12:16:21;7.57;;;2.78;;
62554;SDS011;48610;52.144;8.624;2023-09-19T12:19:22;6.93;;;2.67;;
62554;SDS011;48610;52.144;8.624;2023-09-19T12:22:23;7.40;;;2.83;;
62554;SDS011;48610;52.144;8.624;2023-09-19T12:25:25;14.23;;;3.60;;
62554;SDS011;48610;52.144;8.624;2023-09-19T12:28:27;6.85;;;2.63;;
62554;SDS011;48610;52.144;8.624;2023-09-19T12:31:34;9.05;;;3.10;;
62554;SDS011;48610;52.144;8.624;2023-09-19T12:34:37;4.07;;;2.38;;
62554;SDS011;48610;52.144;8.624;2023-09-19T12:37:43;8.35;;;2.60;;
62554;SDS011;48610;52.144;8.624;2023-09-19T12:40:52;7.32;;;2.88;;
62554;SDS011;48610;52.144;8.624;2023-09-19T12:43:54;6.35;;;2.45;;
62554;SDS011;48610;52.144;8.624;2023-09-19T12:46:55;7.22;;;2.85;;
62554;SDS011;48610;52.144;8.624;2023-09-19T12:53:27;6.72;;;2.67;;
62554;SDS011;48610;52.144;8.624;2023-09-19T12:56:29;10.38;;;2.67;;
62554;SDS011;48610;52.144;8.624;2023-09-19T12:59:44;8.45;;;3.03;;
62554;SDS011;48610;52.144;8.624;2023-09-19T13:03:18;11.80;;;2.70;;
62554;SDS011;48610;52.144;8.624;2023-09-19T13:06:35;8.80;;;2.53;;
62554;SDS011;48610;52.144;8.624;2023-09-19T13:09:38;10.05;;;3.10;;
62554;SDS011;48610;52.144;8.624;2023-09-19T13:12:39;7.15;;;2.88;;
62554;SDS011;48610;52.144;8.624;2023-09-19T13:15:52;6.65;;;2.58;;
62554;SDS011;48610;52.144;8.624;2023-09-19T13:18:53;8.55;;;2.90;;
62554;SDS011;48610;52.144;8.624;2023-09-19T13:21:56;7.50;;;2.67;;
62554;SDS011;48610;52.144;8.624;2023-09-19T13:24:57;7.00;;;2.70;;
62554;SDS011;48610;52.144;8.624;2023-09-19T13:27:59;9.45;;;2.67;;
62554;SDS011;48610;52.144;8.624;2023-09-19T13:31:00;4.82;;;2.10;;
62554;SDS011;48610;52.144;8.624;2023-09-19T13:34:01;9.15;;;2.45;;
62554;SDS011;48610;52.144;8.624;2023-09-19T13:37:02;8.25;;;2.70;;
62554;SDS011;48610;52.144;8.624;2023-09-19T13:40:05;4.45;;;1.92;;
62554;SDS011;48610;52.144;8.624;2023-09-19T13:43:06;6.47;;;1.95;;
62554;SDS011;48610;52.144;8.624;2023-09-19T13:46:06;7.07;;;2.65;;
62554;SDS011;48610;52.144;8.624;2023-09-19T13:49:15;13.98;;;3.25;;
62554;SDS011;48610;52.144;8.624;2023-09-19T13:52:21;6.78;;;2.15;;
62554;SDS011;48610;52.144;8.624;2023-09-19T13:58:25;6.32;;;2.40;;
62554;SDS011;48610;52.144;8.624;2023-09-19T14:01:27;5.68;;;2.42;;
62554;SDS011;48610;52.144;8.624;2023-09-19T14:04:27;7.75;;;2.33;;
62554;SDS011;48610;52.144;8.624;2023-09-19T14:07:29;8.93;;;2.50;;
62554;SDS011;48610;52.144;8.624;2023-09-19T14:10:30;5.40;;;2.20;;
62554;SDS011;48610;52.144;8.624;2023-09-19T14:13:31;6.43;;;2.20;;
62554;SDS011;48610;52.144;8.624;2023-09-19T14:16:32;5.63;;;2.25;;
62554;SDS011;48610;52.144;8.624;2023-09-19T14:19:33;8.13;;;2.28;;
62554;SDS011;48610;52.144;8.624;2023-09-19T14:22:35;5.95;;;2.45;;
62554;SDS011;48610;52.144;8.624;2023-09-19T14:25:36;8.88;;;2.45;;
62554;SDS011;48610;52.144;8.624;2023-09-19T14:28:38;4.10;;;1.70;;
62554;SDS011;48610;52.144;8.624;2023-09-19T14:31:39;5.35;;;1.98;;
62554;SDS011;48610;52.144;8.624;2023-09-19T14:34:40;6.43;;;2.13;;
62554;SDS011;48610;52.144;8.624;2023-09-19T14:37:42;5.93;;;2.28;;
62554;SDS011;48610;52.144;8.624;2023-09-19T14:40:43;5.93;;;2.35;;
62554;SDS011;48610;52.144;8.624;2023-09-19T14:43:44;3.05;;;1.92;;
62554;SDS011;48610;52.144;8.624;2023-09-19T14:46:45;8.85;;;2.65;;
62554;SDS011;48610;52.144;8.624;2023-09-19T14:49:45;9.75;;;3.05;;
62554;SDS011;48610;52.144;8.624;2023-09-19T14:52:46;4.57;;;2.25;;
62554;SDS011;48610;52.144;8.624;2023-09-19T14:55:47;3.55;;;1.90;;
62554;SDS011;48610;52.144;8.624;2023-09-19T14:58:51;6.43;;;2.45;;
62554;SDS011;48610;52.144;8.624;2023-09-19T15:01:52;7.63;;;2.35;;
62554;SDS011;48610;52.144;8.624;2023-09-19T15:04:53;7.68;;;2.33;;
62554;SDS011;48610;52.144;8.624;2023-09-19T15:07:54;7.70;;;2.70;;
62554;SDS011;48610;52.144;8.624;2023-09-19T15:10:55;10.95;;;2.33;;
62554;SDS011;48610;52.144;8.624;2023-09-19T15:13:58;4.43;;;1.92;;
62554;SDS011;48610;52.144;8.624;2023-09-19T15:16:59;4.50;;;1.85;;
62554;SDS011;48610;52.144;8.624;2023-09-19T15:20:00;6.43;;;2.20;;
62554;SDS011;48610;52.144;8.624;2023-09-19T15:23:06;6.15;;;2.05;;
62554;SDS011;48610;52.144;8.624;2023-09-19T15:26:07;8.68;;;2.40;;
62554;SDS011;48610;52.144;8.624;2023-09-19T15:29:09;6.25;;;2.60;;
62554;SDS011;48610;52.144;8.624;2023-09-19T15:32:10;4.40;;;2.40;;
62554;SDS011;48610;52.144;8.624;2023-09-19T15:35:11;6.63;;;2.30;;
62554;SDS011;48610;52.144;8.624;2023-09-19T15:38:13;6.30;;;2.30;;
62554;SDS011;48610;52.144;8.624;2023-09-19T15:41:14;7.88;;;1.92;;
62554;SDS011;48610;52.144;8.624;2023-09-19T15:44:15;3.10;;;1.90;;
62554;SDS011;48610;52.144;8.624;2023-09-19T15:47:17;4.15;;;2.20;;
62554;SDS011;48610;52.144;8.624;2023-09-19T15:50:19;7.53;;;2.22;;
62554;SDS011;48610;52.144;8.624;2023-09-19T15:53:21;4.65;;;1.95;;
62554;SDS011;48610;52.144;8.624;2023-09-19T15:56:23;8.75;;;1.67;;
62554;SDS011;48610;52.144;8.624;2023-09-19T15:59:24;4.82;;;2.20;;
62554;SDS011;48610;52.144;8.624;2023-09-19T16:02:24;4.15;;;1.58;;
62554;SDS011;48610;52.144;8.624;2023-09-19T16:05:26;4.72;;;1.73;;
62554;SDS011;48610;52.144;8.624;2023-09-19T16:08:27;5.28;;;1.73;;
62554;SDS011;48610;52.144;8.624;2023-09-19T16:11:28;3.80;;;1.60;;
62554;SDS011;48610;52.144;8.624;2023-09-19T16:14:29;4.88;;;2.00;;
62554;SDS011;48610;52.144;8.624;2023-09-19T16:17:30;7.85;;;1.92;;
62554;SDS011;48610;52.144;8.624;2023-09-19T16:20:31;4.72;;;1.90;;
62554;SDS011;48610;52.144;8.624;2023-09-19T16:23:33;6.75;;;1.88;;
62554;SDS011;48610;52.144;8.624;2023-09-19T16:26:35;7.60;;;1.80;;
62554;SDS011;48610;52.144;8.624;2023-09-19T16:29:35;2.13;;;1.38;;
62554;SDS011;48610;52.144;8.624;2023-09-19T16:32:36;4.78;;;1.60;;
62554;SDS011;48610;52.144;8.624;2023-09-19T16:35:37;6.38;;;1.70;;
62554;SDS011;48610;52.144;8.624;2023-09-19T16:38:39;6.18;;;1.80;;
62554;SDS011;48610;52.144;8.624;2023-09-19T16:41:41;1.63;;;1.17;;
62554;SDS011;48610;52.144;8.624;2023-09-19T16:44:42;4.30;;;1.38;;
62554;SDS011;48610;52.144;8.624;2023-09-19T16:47:43;2.53;;;1.25;;
62554;SDS011;48610;52.144;8.624;2023-09-19T16:50:44;9.45;;;1.25;;
62554;SDS011;48610;52.144;8.624;2023-09-19T16:53:44;5.65;;;1.20;;
62554;SDS011;48610;52.144;8.624;2023-09-19T16:56:45;5.85;;;1.52;;
62554;SDS011;48610;52.144;8.624;2023-09-19T16:59:46;4.25;;;1.63;;
62554;SDS011;48610;52.144;8.624;2023-09-19T17:02:46;2.58;;;1.17;;
62554;SDS011;48610;52.144;8.624;2023-09-19T17:05:47;1.30;;;0.85;;
62554;SDS011;48610;52.144;8.624;2023-09-19T17:08:49;3.55;;;1.60;;
62554;SDS011;48610;52.144;8.624;2023-09-19T17:11:50;3.65;;;1.20;;
62554;SDS011;48610;52.144;8.624;2023-09-19T17:14:51;6.25;;;1.70;;
62554;SDS011;48610;52.144;8.624;2023-09-19T17:17:52;2.78;;;1.55;;
62554;SDS011;48610;52.144;8.624;2023-09-19T17:20:54;3.90;;;1.05;;
62554;SDS011;48610;52.144;8.624;2023-09-19T17:23:55;2.20;;;1.13;;
62554;SDS011;48610;52.144;8.624;2023-09-19T17:26:58;4.03;;;1.50;;
62554;SDS011;48610;52.144;8.624;2023-09-19T17:29:59;2.58;;;1.30;;
62554;SDS011;48610;52.144;8.624;2023-09-19T17:33:01;1.42;;;0.80;;
62554;SDS011;48610;52.144;8.624;2023-09-19T17:36:08;2.03;;;1.10;;
62554;SDS011;48610;52.144;8.624;2023-09-19T17:39:16;2.72;;;1.02;;
62554;SDS011;48610;52.144;8.624;2023-09-19T17:42:17;2.40;;;1.20;;
62554;SDS011;48610;52.144;8.624;2023-09-19T17:45:18;4.97;;;1.35;;
62554;SDS011;48610;52.144;8.624;2023-09-19T17:48:18;1.23;;;1.00;;
62554;SDS011;48610;52.144;8.624;2023-09-19T17:51:19;3.33;;;1.20;;
62554;SDS011;48610;52.144;8.624;2023-09-19T17:54:20;3.15;;;1.30;;
62554;SDS011;48610;52.144;8.624;2023-09-19T17:57:20;1.05;;;0.93;;
62554;SDS011;48610;52.144;8.624;2023-09-19T18:00:22;1.85;;;1.23;;
62554;SDS011;48610;52.144;8.624;2023-09-19T18:03:23;2.92;;;1.13;;
62554;SDS011;48610;52.144;8.624;2023-09-19T18:06:26;3.38;;;1.25;;
62554;SDS011;48610;52.144;8.624;2023-09-19T18:09:27;3.10;;;1.40;;
62554;SDS011;48610;52.144;8.624;2023-09-19T18:12:29;5.10;;;1.30;;
62554;SDS011;48610;52.144;8.624;2023-09-19T18:15:29;8.93;;;1.55;;
62554;SDS011;48610;52.144;8.624;2023-09-19T18:18:33;1.98;;;1.35;;
62554;SDS011;48610;52.144;8.624;2023-09-19T18:21:34;2.20;;;1.25;;
62554;SDS011;48610;52.144;8.624;2023-09-19T18:24:35;6.32;;;1.80;;
62554;SDS011;48610;52.144;8.624;2023-09-19T18:27:35;3.47;;;1.40;;
62554;SDS011;48610;52.144;8.624;2023-09-19T18:30:38;2.00;;;1.38;;
62554;SDS011;48610;52.144;8.624;2023-09-19T18:33:39;1.58;;;1.13;;
62554;SDS011;48610;52.144;8.624;2023-09-19T18:36:39;6.05;;;1.38;;
62554;SDS011;48610;52.144;8.624;2023-09-19T18:39:40;5.57;;;1.50;;
62554;SDS011;48610;52.144;8.624;2023-09-19T18:42:42;3.20;;;1.35;;
62554;SDS011;48610;52.144;8.624;2023-09-19T18:45:42;4.28;;;1.38;;
62554;SDS011;48610;52.144;8.624;2023-09-19T18:48:43;2.30;;;1.10;;
62554;SDS011;48610;52.144;8.624;2023-09-19T18:51:45;7.97;;;1.40;;
62554;SDS011;48610;52.144;8.624;2023-09-19T18:54:50;2.78;;;1.33;;
62554;SDS011;48610;52.144;8.624;2023-09-19T18:57:51;3.40;;;1.50;;
62554;SDS011;48610;52.144;8.624;2023-09-19T19:00:52;3.53;;;1.70;;
62554;SDS011;48610;52.144;8.624;2023-09-19T19:03:53;4.25;;;1.40;;
62554;SDS011;48610;52.144;8.624;2023-09-19T19:06:54;1.90;;;1.30;;